LKHK weather

Hradec Králové Airport
Hradec Králové, Hradec Králové Region, Czech Republic

Public forecast

Using degrees Celsius for public forecast. Weather courtesy of forecast.io.

Closest aviation weather report (METAR) to Hradec Králové Airport

Closest report is Pardubice Airport, 15.0 nm (27.7 km) SSW. Retrieved 2019/12/14 23:00 UTC (35 minutes ago):

LKPD 142300Z 24018G26KT CAVOK 08/M01 Q1002 RMK BLU

Closest aviation forecast (TAF) to Hradec Králové Airport

Closest forecast is Pardubice Airport, 15.0 nm (27.7 km) SSW. Retrieved 2019/12/14 18:06 UTC (5 hours ago):

TAF LKPD 141700Z 1418/1518 26010KT CAVOK PROB30 TEMPO 1418/1421 26014KT 7000 RA BKN027 BECMG 1505/1508 BKN035 TEMPO 1506/1518 24018G30KT 6000 RA BKN020